sensor_id;sensor_type;location;lat;lon;timestamp;P1;durP1;ratioP1;P2;durP2;ratioP2
68507;SDS011;55510;49.560;19.090;2022-11-09T00:00:37;15.40;;;7.80;;
68507;SDS011;55510;49.560;19.090;2022-11-09T00:03:37;16.07;;;7.13;;
68507;SDS011;55510;49.560;19.090;2022-11-09T00:06:38;17.45;;;7.38;;
68507;SDS011;55510;49.560;19.090;2022-11-09T00:09:39;16.73;;;6.88;;
68507;SDS011;55510;49.560;19.090;2022-11-09T00:12:40;18.77;;;7.83;;
68507;SDS011;55510;49.560;19.090;2022-11-09T00:15:41;15.93;;;6.22;;
68507;SDS011;55510;49.560;19.090;2022-11-09T00:18:42;16.77;;;6.60;;
68507;SDS011;55510;49.560;19.090;2022-11-09T00:21:48;16.63;;;7.20;;
68507;SDS011;55510;49.560;19.090;2022-11-09T00:24:49;15.45;;;6.65;;
68507;SDS011;55510;49.560;19.090;2022-11-09T00:27:50;18.17;;;8.13;;
68507;SDS011;55510;49.560;19.090;2022-11-09T00:30:57;16.15;;;7.53;;
68507;SDS011;55510;49.560;19.090;2022-11-09T00:34:01;19.33;;;7.45;;
68507;SDS011;55510;49.560;19.090;2022-11-09T00:37:02;20.27;;;6.63;;
68507;SDS011;55510;49.560;19.090;2022-11-09T00:40:03;16.07;;;6.90;;
68507;SDS011;55510;49.560;19.090;2022-11-09T00:43:04;16.42;;;6.88;;
68507;SDS011;55510;49.560;19.090;2022-11-09T00:46:04;17.60;;;7.37;;
68507;SDS011;55510;49.560;19.090;2022-11-09T00:49:05;17.00;;;7.35;;
68507;SDS011;55510;49.560;19.090;2022-11-09T00:52:06;17.77;;;6.83;;
68507;SDS011;55510;49.560;19.090;2022-11-09T00:55:07;16.65;;;6.78;;
68507;SDS011;55510;49.560;19.090;2022-11-09T00:58:08;16.40;;;6.10;;
68507;SDS011;55510;49.560;19.090;2022-11-09T01:01:10;15.10;;;6.05;;
68507;SDS011;55510;49.560;19.090;2022-11-09T01:04:12;16.88;;;7.28;;
68507;SDS011;55510;49.560;19.090;2022-11-09T01:07:13;14.47;;;6.07;;
68507;SDS011;55510;49.560;19.090;2022-11-09T01:10:14;15.10;;;6.10;;
68507;SDS011;55510;49.560;19.090;2022-11-09T01:13:15;29.30;;;10.27;;
68507;SDS011;55510;49.560;19.090;2022-11-09T01:16:18;26.73;;;9.85;;
68507;SDS011;55510;49.560;19.090;2022-11-09T01:19:21;27.15;;;10.13;;
68507;SDS011;55510;49.560;19.090;2022-11-09T01:22:21;20.87;;;8.90;;
68507;SDS011;55510;49.560;19.090;2022-11-09T01:25:22;20.73;;;9.38;;
68507;SDS011;55510;49.560;19.090;2022-11-09T01:28:22;22.23;;;9.40;;
68507;SDS011;55510;49.560;19.090;2022-11-09T01:31:23;21.13;;;7.97;;
68507;SDS011;55510;49.560;19.090;2022-11-09T01:34:26;20.95;;;8.38;;
68507;SDS011;55510;49.560;19.090;2022-11-09T01:37:27;23.38;;;8.60;;
68507;SDS011;55510;49.560;19.090;2022-11-09T01:40:28;23.60;;;8.03;;
68507;SDS011;55510;49.560;19.090;2022-11-09T01:43:30;24.42;;;9.85;;
68507;SDS011;55510;49.560;19.090;2022-11-09T01:49:53;20.00;;;8.53;;
68507;SDS011;55510;49.560;19.090;2022-11-09T01:52:58;23.13;;;8.48;;
68507;SDS011;55510;49.560;19.090;2022-11-09T01:56:02;21.83;;;7.47;;
68507;SDS011;55510;49.560;19.090;2022-11-09T01:59:07;23.05;;;9.70;;
68507;SDS011;55510;49.560;19.090;2022-11-09T02:02:13;18.97;;;8.63;;
68507;SDS011;55510;49.560;19.090;2022-11-09T02:05:16;26.03;;;10.43;;
68507;SDS011;55510;49.560;19.090;2022-11-09T02:08:21;27.23;;;10.43;;
68507;SDS011;55510;49.560;19.090;2022-11-09T02:11:25;21.95;;;9.20;;
68507;SDS011;55510;49.560;19.090;2022-11-09T02:14:26;24.55;;;9.57;;
68507;SDS011;55510;49.560;19.090;2022-11-09T02:17:29;25.57;;;9.33;;
68507;SDS011;55510;49.560;19.090;2022-11-09T02:20:30;24.33;;;9.47;;
68507;SDS011;55510;49.560;19.090;2022-11-09T02:23:45;23.55;;;9.10;;
68507;SDS011;55510;49.560;19.090;2022-11-09T02:26:49;26.73;;;9.88;;
68507;SDS011;55510;49.560;19.090;2022-11-09T02:29:51;23.40;;;9.68;;
68507;SDS011;55510;49.560;19.090;2022-11-09T02:32:52;23.93;;;9.47;;
68507;SDS011;55510;49.560;19.090;2022-11-09T02:35:53;23.20;;;9.13;;
68507;SDS011;55510;49.560;19.090;2022-11-09T02:38:54;24.93;;;8.93;;
68507;SDS011;55510;49.560;19.090;2022-11-09T02:42:00;19.50;;;7.93;;
68507;SDS011;55510;49.560;19.090;2022-11-09T02:45:05;23.33;;;10.05;;
68507;SDS011;55510;49.560;19.090;2022-11-09T02:48:06;23.02;;;8.73;;
68507;SDS011;55510;49.560;19.090;2022-11-09T02:51:06;20.97;;;8.87;;
68507;SDS011;55510;49.560;19.090;2022-11-09T02:54:07;24.38;;;9.15;;
68507;SDS011;55510;49.560;19.090;2022-11-09T02:57:08;22.57;;;9.60;;
68507;SDS011;55510;49.560;19.090;2022-11-09T03:00:09;22.27;;;8.65;;
68507;SDS011;55510;49.560;19.090;2022-11-09T03:03:10;18.70;;;7.00;;
68507;SDS011;55510;49.560;19.090;2022-11-09T03:06:11;21.47;;;7.47;;
68507;SDS011;55510;49.560;19.090;2022-11-09T03:09:12;23.65;;;10.32;;
68507;SDS011;55510;49.560;19.090;2022-11-09T03:12:13;24.90;;;10.73;;
68507;SDS011;55510;49.560;19.090;2022-11-09T03:15:29;24.70;;;12.70;;
68507;SDS011;55510;49.560;19.090;2022-11-09T03:18:29;25.83;;;10.53;;
68507;SDS011;55510;49.560;19.090;2022-11-09T03:21:30;18.42;;;8.32;;
68507;SDS011;55510;49.560;19.090;2022-11-09T03:24:30;22.97;;;8.80;;
68507;SDS011;55510;49.560;19.090;2022-11-09T03:27:31;25.10;;;10.93;;
68507;SDS011;55510;49.560;19.090;2022-11-09T03:30:32;36.38;;;15.30;;
68507;SDS011;55510;49.560;19.090;2022-11-09T03:33:33;37.87;;;15.77;;
68507;SDS011;55510;49.560;19.090;2022-11-09T03:36:35;43.90;;;17.93;;
68507;SDS011;55510;49.560;19.090;2022-11-09T03:39:35;54.55;;;20.75;;
68507;SDS011;55510;49.560;19.090;2022-11-09T03:42:36;28.43;;;12.27;;
68507;SDS011;55510;49.560;19.090;2022-11-09T03:45:43;23.63;;;10.88;;
68507;SDS011;55510;49.560;19.090;2022-11-09T03:48:43;23.47;;;9.20;;
68507;SDS011;55510;49.560;19.090;2022-11-09T03:51:44;24.92;;;11.32;;
68507;SDS011;55510;49.560;19.090;2022-11-09T03:54:45;25.03;;;10.87;;
68507;SDS011;55510;49.560;19.090;2022-11-09T03:57:45;29.45;;;11.90;;
68507;SDS011;55510;49.560;19.090;2022-11-09T04:00:46;27.47;;;12.60;;
68507;SDS011;55510;49.560;19.090;2022-11-09T04:03:47;27.05;;;11.55;;
68507;SDS011;55510;49.560;19.090;2022-11-09T04:06:47;25.37;;;9.40;;
68507;SDS011;55510;49.560;19.090;2022-11-09T04:09:48;23.27;;;9.57;;
68507;SDS011;55510;49.560;19.090;2022-11-09T04:12:49;24.90;;;8.67;;
68507;SDS011;55510;49.560;19.090;2022-11-09T04:15:49;23.70;;;8.67;;
68507;SDS011;55510;49.560;19.090;2022-11-09T04:18:50;28.50;;;11.63;;
68507;SDS011;55510;49.560;19.090;2022-11-09T04:21:51;27.73;;;10.97;;
68507;SDS011;55510;49.560;19.090;2022-11-09T04:24:51;29.23;;;11.73;;
68507;SDS011;55510;49.560;19.090;2022-11-09T04:27:53;34.87;;;13.23;;
68507;SDS011;55510;49.560;19.090;2022-11-09T04:30:58;27.35;;;11.50;;
68507;SDS011;55510;49.560;19.090;2022-11-09T04:33:59;26.58;;;11.88;;
68507;SDS011;55510;49.560;19.090;2022-11-09T04:37:00;22.47;;;10.03;;
68507;SDS011;55510;49.560;19.090;2022-11-09T04:40:01;22.17;;;9.05;;
68507;SDS011;55510;49.560;19.090;2022-11-09T04:43:02;29.93;;;10.07;;
68507;SDS011;55510;49.560;19.090;2022-11-09T04:46:04;22.15;;;8.55;;
68507;SDS011;55510;49.560;19.090;2022-11-09T04:49:05;25.17;;;10.65;;
68507;SDS011;55510;49.560;19.090;2022-11-09T04:52:06;23.25;;;9.68;;
68507;SDS011;55510;49.560;19.090;2022-11-09T04:55:07;23.33;;;9.33;;
68507;SDS011;55510;49.560;19.090;2022-11-09T04:58:08;22.77;;;10.07;;
68507;SDS011;55510;49.560;19.090;2022-11-09T05:01:10;23.63;;;9.00;;
68507;SDS011;55510;49.560;19.090;2022-11-09T05:04:12;18.85;;;7.50;;
68507;SDS011;55510;49.560;19.090;2022-11-09T05:07:12;25.63;;;8.85;;
68507;SDS011;55510;49.560;19.090;2022-11-09T05:10:13;21.07;;;7.70;;
68507;SDS011;55510;49.560;19.090;2022-11-09T05:13:14;22.35;;;8.50;;
68507;SDS011;55510;49.560;19.090;2022-11-09T05:16:15;19.43;;;7.53;;
68507;SDS011;55510;49.560;19.090;2022-11-09T05:19:19;18.97;;;7.27;;
68507;SDS011;55510;49.560;19.090;2022-11-09T05:22:20;17.60;;;7.07;;
68507;SDS011;55510;49.560;19.090;2022-11-09T05:25:39;17.25;;;6.72;;
68507;SDS011;55510;49.560;19.090;2022-11-09T05:28:40;16.73;;;6.97;;
68507;SDS011;55510;49.560;19.090;2022-11-09T05:31:40;17.20;;;7.30;;
68507;SDS011;55510;49.560;19.090;2022-11-09T05:34:41;21.03;;;8.33;;
68507;SDS011;55510;49.560;19.090;2022-11-09T05:37:45;19.98;;;8.18;;
68507;SDS011;55510;49.560;19.090;2022-11-09T05:40:48;18.67;;;7.50;;
68507;SDS011;55510;49.560;19.090;2022-11-09T05:43:49;17.00;;;6.53;;
68507;SDS011;55510;49.560;19.090;2022-11-09T05:46:50;18.90;;;7.32;;
68507;SDS011;55510;49.560;19.090;2022-11-09T05:49:50;18.80;;;6.73;;
68507;SDS011;55510;49.560;19.090;2022-11-09T05:52:51;19.27;;;7.93;;
68507;SDS011;55510;49.560;19.090;2022-11-09T05:55:53;17.90;;;7.70;;
68507;SDS011;55510;49.560;19.090;2022-11-09T05:58:54;17.65;;;7.25;;
68507;SDS011;55510;49.560;19.090;2022-11-09T17:57:05;41.58;;;21.05;;
68507;SDS011;55510;49.560;19.090;2022-11-09T18:00:09;39.58;;;19.30;;
68507;SDS011;55510;49.560;19.090;2022-11-09T18:03:10;41.33;;;20.00;;
68507;SDS011;55510;49.560;19.090;2022-11-09T18:06:14;49.23;;;23.40;;
68507;SDS011;55510;49.560;19.090;2022-11-09T18:09:18;40.85;;;21.00;;
68507;SDS011;55510;49.560;19.090;2022-11-09T18:12:20;35.47;;;17.33;;
68507;SDS011;55510;49.560;19.090;2022-11-09T18:15:21;37.27;;;18.13;;
68507;SDS011;55510;49.560;19.090;2022-11-09T18:18:22;38.75;;;19.60;;
68507;SDS011;55510;49.560;19.090;2022-11-09T18:21:24;46.17;;;22.60;;
68507;SDS011;55510;49.560;19.090;2022-11-09T18:24:25;45.23;;;20.37;;
68507;SDS011;55510;49.560;19.090;2022-11-09T18:27:26;46.90;;;20.63;;
68507;SDS011;55510;49.560;19.090;2022-11-09T18:30:27;44.37;;;19.50;;
68507;SDS011;55510;49.560;19.090;2022-11-09T18:33:27;40.88;;;18.27;;
68507;SDS011;55510;49.560;19.090;2022-11-09T18:36:29;35.10;;;15.57;;
68507;SDS011;55510;49.560;19.090;2022-11-09T18:39:29;35.30;;;15.52;;
68507;SDS011;55510;49.560;19.090;2022-11-09T18:42:30;37.67;;;16.57;;
68507;SDS011;55510;49.560;19.090;2022-11-09T18:45:31;39.60;;;19.65;;
68507;SDS011;55510;49.560;19.090;2022-11-09T18:48:34;39.28;;;18.58;;
68507;SDS011;55510;49.560;19.090;2022-11-09T18:51:36;33.40;;;16.17;;
68507;SDS011;55510;49.560;19.090;2022-11-09T18:54:37;29.75;;;14.48;;
68507;SDS011;55510;49.560;19.090;2022-11-09T18:57:38;32.65;;;15.82;;
68507;SDS011;55510;49.560;19.090;2022-11-09T19:00:39;60.90;;;27.90;;
68507;SDS011;55510;49.560;19.090;2022-11-09T19:03:40;67.63;;;34.60;;
68507;SDS011;55510;49.560;19.090;2022-11-09T19:06:41;90.93;;;46.95;;
68507;SDS011;55510;49.560;19.090;2022-11-09T19:09:42;92.83;;;43.50;;
68507;SDS011;55510;49.560;19.090;2022-11-09T19:12:43;80.97;;;41.38;;
68507;SDS011;55510;49.560;19.090;2022-11-09T19:15:44;76.33;;;38.23;;
68507;SDS011;55510;49.560;19.090;2022-11-09T19:18:45;73.32;;;38.80;;
68507;SDS011;55510;49.560;19.090;2022-11-09T19:21:46;101.63;;;46.83;;
68507;SDS011;55510;49.560;19.090;2022-11-09T19:24:49;105.40;;;50.33;;
68507;SDS011;55510;49.560;19.090;2022-11-09T19:27:50;85.57;;;41.87;;
68507;SDS011;55510;49.560;19.090;2022-11-09T19:30:50;78.82;;;39.38;;
68507;SDS011;55510;49.560;19.090;2022-11-09T19:33:51;64.37;;;32.30;;
68507;SDS011;55510;49.560;19.090;2022-11-09T19:36:52;60.20;;;30.33;;
68507;SDS011;55510;49.560;19.090;2022-11-09T19:39:53;57.08;;;26.98;;
68507;SDS011;55510;49.560;19.090;2022-11-09T19:42:54;67.97;;;31.80;;
68507;SDS011;55510;49.560;19.090;2022-11-09T19:45:55;71.32;;;32.83;;
68507;SDS011;55510;49.560;19.090;2022-11-09T19:48:56;70.20;;;33.65;;
68507;SDS011;55510;49.560;19.090;2022-11-09T19:51:57;69.67;;;33.20;;
68507;SDS011;55510;49.560;19.090;2022-11-09T19:54:58;56.65;;;22.67;;
68507;SDS011;55510;49.560;19.090;2022-11-09T19:57:58;63.57;;;26.60;;
68507;SDS011;55510;49.560;19.090;2022-11-09T20:01:00;68.23;;;31.47;;
68507;SDS011;55510;49.560;19.090;2022-11-09T20:04:05;73.75;;;33.13;;
68507;SDS011;55510;49.560;19.090;2022-11-09T20:07:09;74.65;;;31.20;;
68507;SDS011;55510;49.560;19.090;2022-11-09T20:10:09;69.97;;;30.23;;
68507;SDS011;55510;49.560;19.090;2022-11-09T20:13:10;70.72;;;31.27;;
68507;SDS011;55510;49.560;19.090;2022-11-09T20:16:11;76.72;;;32.38;;
68507;SDS011;55510;49.560;19.090;2022-11-09T20:19:13;77.45;;;35.08;;
68507;SDS011;55510;49.560;19.090;2022-11-09T20:22:14;82.60;;;35.20;;
68507;SDS011;55510;49.560;19.090;2022-11-09T20:25:14;83.93;;;35.70;;
68507;SDS011;55510;49.560;19.090;2022-11-09T20:28:15;83.67;;;37.20;;
68507;SDS011;55510;49.560;19.090;2022-11-09T20:31:17;87.75;;;42.17;;
68507;SDS011;55510;49.560;19.090;2022-11-09T20:34:21;94.65;;;45.35;;
68507;SDS011;55510;49.560;19.090;2022-11-09T20:37:22;95.63;;;42.42;;
68507;SDS011;55510;49.560;19.090;2022-11-09T20:40:23;84.73;;;37.87;;
68507;SDS011;55510;49.560;19.090;2022-11-09T20:43:24;85.53;;;37.33;;
68507;SDS011;55510;49.560;19.090;2022-11-09T20:46:25;88.18;;;40.75;;
68507;SDS011;55510;49.560;19.090;2022-11-09T20:49:28;96.30;;;40.88;;
68507;SDS011;55510;49.560;19.090;2022-11-09T20:52:29;79.33;;;36.17;;
68507;SDS011;55510;49.560;19.090;2022-11-09T20:55:30;81.17;;;35.47;;
68507;SDS011;55510;49.560;19.090;2022-11-09T20:58:30;83.83;;;35.17;;
68507;SDS011;55510;49.560;19.090;2022-11-09T21:01:31;82.40;;;36.30;;
68507;SDS011;55510;49.560;19.090;2022-11-09T21:04:32;87.70;;;41.55;;
68507;SDS011;55510;49.560;19.090;2022-11-09T21:07:33;84.63;;;38.30;;
68507;SDS011;55510;49.560;19.090;2022-11-09T21:10:34;81.93;;;36.10;;
68507;SDS011;55510;49.560;19.090;2022-11-09T21:13:34;87.67;;;37.37;;
68507;SDS011;55510;49.560;19.090;2022-11-09T21:16:35;83.55;;;35.30;;
68507;SDS011;55510;49.560;19.090;2022-11-09T21:19:36;74.27;;;32.70;;
68507;SDS011;55510;49.560;19.090;2022-11-09T21:22:36;64.40;;;26.92;;
68507;SDS011;55510;49.560;19.090;2022-11-09T21:25:57;69.87;;;30.93;;
68507;SDS011;55510;49.560;19.090;2022-11-09T21:29:18;76.72;;;31.38;;
68507;SDS011;55510;49.560;19.090;2022-11-09T21:32:39;77.88;;;33.03;;
68507;SDS011;55510;49.560;19.090;2022-11-09T21:35:40;76.93;;;34.33;;
68507;SDS011;55510;49.560;19.090;2022-11-09T21:38:40;75.10;;;32.22;;
68507;SDS011;55510;49.560;19.090;2022-11-09T21:41:41;70.50;;;31.40;;
68507;SDS011;55510;49.560;19.090;2022-11-09T21:44:43;65.18;;;30.98;;
68507;SDS011;55510;49.560;19.090;2022-11-09T21:47:43;68.85;;;30.10;;
68507;SDS011;55510;49.560;19.090;2022-11-09T21:50:44;74.70;;;34.00;;
68507;SDS011;55510;49.560;19.090;2022-11-09T21:53:45;72.90;;;33.33;;
68507;SDS011;55510;49.560;19.090;2022-11-09T21:56:46;68.20;;;31.17;;
68507;SDS011;55510;49.560;19.090;2022-11-09T21:59:47;73.65;;;31.63;;
68507;SDS011;55510;49.560;19.090;2022-11-09T22:02:48;74.70;;;33.20;;
68507;SDS011;55510;49.560;19.090;2022-11-09T22:05:48;74.77;;;33.63;;
68507;SDS011;55510;49.560;19.090;2022-11-09T22:08:49;81.07;;;34.28;;
68507;SDS011;55510;49.560;19.090;2022-11-09T22:11:50;69.43;;;31.77;;
68507;SDS011;55510;49.560;19.090;2022-11-09T22:15:10;73.07;;;31.43;;
68507;SDS011;55510;49.560;19.090;2022-11-09T22:18:29;67.65;;;30.45;;
68507;SDS011;55510;49.560;19.090;2022-11-09T22:21:49;72.82;;;32.13;;
68507;SDS011;55510;49.560;19.090;2022-11-09T22:24:50;71.90;;;31.37;;
68507;SDS011;55510;49.560;19.090;2022-11-09T22:27:50;69.53;;;31.83;;
68507;SDS011;55510;49.560;19.090;2022-11-09T22:30:51;77.27;;;31.30;;
68507;SDS011;55510;49.560;19.090;2022-11-09T22:33:52;67.75;;;31.00;;
68507;SDS011;55510;49.560;19.090;2022-11-09T22:36:53;83.60;;;38.05;;
68507;SDS011;55510;49.560;19.090;2022-11-09T22:39:54;78.32;;;34.53;;
68507;SDS011;55510;49.560;19.090;2022-11-09T22:42:55;77.80;;;32.37;;
68507;SDS011;55510;49.560;19.090;2022-11-09T22:46:00;75.50;;;33.97;;
68507;SDS011;55510;49.560;19.090;2022-11-09T22:49:02;75.63;;;32.25;;
68507;SDS011;55510;49.560;19.090;2022-11-09T22:52:03;63.70;;;28.97;;
68507;SDS011;55510;49.560;19.090;2022-11-09T22:55:04;77.45;;;30.92;;
68507;SDS011;55510;49.560;19.090;2022-11-09T22:58:08;71.82;;;31.65;;
68507;SDS011;55510;49.560;19.090;2022-11-09T23:01:13;75.85;;;31.63;;
68507;SDS011;55510;49.560;19.090;2022-11-09T23:04:16;61.60;;;27.47;;
68507;SDS011;55510;49.560;19.090;2022-11-09T23:07:16;70.47;;;29.10;;
68507;SDS011;55510;49.560;19.090;2022-11-09T23:10:17;67.90;;;29.53;;
68507;SDS011;55510;49.560;19.090;2022-11-09T23:13:18;69.10;;;30.90;;
68507;SDS011;55510;49.560;19.090;2022-11-09T23:16:19;61.23;;;28.53;;
68507;SDS011;55510;49.560;19.090;2022-11-09T23:19:20;65.07;;;29.80;;
68507;SDS011;55510;49.560;19.090;2022-11-09T23:22:21;62.13;;;27.02;;
68507;SDS011;55510;49.560;19.090;2022-11-09T23:25:21;59.83;;;28.40;;
68507;SDS011;55510;49.560;19.090;2022-11-09T23:28:41;50.05;;;21.55;;
68507;SDS011;55510;49.560;19.090;2022-11-09T23:31:41;50.93;;;21.73;;
68507;SDS011;55510;49.560;19.090;2022-11-09T23:34:42;52.35;;;23.17;;
68507;SDS011;55510;49.560;19.090;2022-11-09T23:37:42;54.33;;;24.67;;
68507;SDS011;55510;49.560;19.090;2022-11-09T23:40:43;56.60;;;24.55;;
68507;SDS011;55510;49.560;19.090;2022-11-09T23:43:44;48.23;;;23.10;;
68507;SDS011;55510;49.560;19.090;2022-11-09T23:46:45;47.72;;;22.13;;
68507;SDS011;55510;49.560;19.090;2022-11-09T23:49:45;54.40;;;23.77;;
68507;SDS011;55510;49.560;19.090;2022-11-09T23:52:46;48.70;;;21.63;;
68507;SDS011;55510;49.560;19.090;2022-11-09T23:55:47;50.07;;;21.93;;
68507;SDS011;55510;49.560;19.090;2022-11-09T23:58:47;41.03;;;19.73;;
